This is the latest recevied weather packets stored in our database for station/object N4HAC. If no packets are shown the sender has not sent any weather packets the latest 10 day(s).
| Time | Temp. | Humidity | Pressure | Rain* | Wind** | Luminosity | Snow |
|---|---|---|---|---|---|---|---|
| 1777299528 | 15° C | 66% | 1019.4 hPa | 0 mm | - | 625 W/m² | - |
| 1777299226 | 14.44° C | 62% | 1019.8 hPa | 0 mm | - | 613 W/m² | - |
| 1777298923 | 15.56° C | 61% | 1019.7 hPa | 0 mm | - | 606 W/m² | - |
| 1777298620 | 15.56° C | 64% | 1019.6 hPa | 0 mm | - | 596 W/m² | - |
| 1777296800 | 15° C | 74% | 1019.3 hPa | 0 mm | - | 515 W/m² | - |
| 1777296495 | 14.44° C | 78% | 1019.4 hPa | 0 mm | - | 503 W/m² | - |
| 1777295887 | 13.33° C | 79% | 1019.4 hPa | 0 mm | - | 476 W/m² | - |
| 1777295585 | 12.22° C | 81% | 1019.2 hPa | 0 mm | - | 458 W/m² | - |
| 1777295282 | 12.22° C | 81% | 1019.4 hPa | 0 mm | - | 442 W/m² | - |
| 1777294676 | 12.22° C | 84% | 1019.5 hPa | 0 mm | - | 406 W/m² | - |
| 1777294068 | 10.56° C | 87% | 1019.3 hPa | 0 mm | - | 371 W/m² | - |
| 1777293460 | 10° C | 92% | 1019.4 hPa | 0 mm | - | 336 W/m² | - |
| 1777293156 | 9.44° C | 96% | 1019.2 hPa | 0 mm | - | 318 W/m² | - |
| 1777292855 | 9.44° C | 99% | 1019.3 hPa | 0 mm | - | 300 W/m² | - |
| 1777292551 | 9.44° C | 99% | 1019.2 hPa | 0 mm | - | 283 W/m² | - |
| 1777292247 | 9.44° C | 99% | 1019.2 hPa | 0 mm | - | 262 W/m² | - |
| 1777291944 | 8.89° C | 99% | 1019.3 hPa | 0 mm | - | 246 W/m² | - |
| 1777291641 | 8.33° C | 99% | 1019.2 hPa | 0 mm | - | 222 W/m² | - |
| 1777291338 | 7.78° C | 99% | 1019.2 hPa | 0 mm | - | 204 W/m² | - |
| 1777291034 | 7.22° C | 99% | 1019 hPa | 0 mm | - | 186 W/m² | - |
| 1777290428 | 6.67° C | 99% | 1019 hPa | 0 mm | - | 156 W/m² | - |
| 1777289821 | 6.11° C | 99% | 1018.9 hPa | 0 mm | - | 144 W/m² | - |
| 1777289516 | 5° C | 99% | 1018.7 hPa | 0 mm | - | 125 W/m² | - |
| 1777289212 | 5.56° C | 99% | 1018.6 hPa | 0 mm | - | 106 W/m² | - |
| 1777288909 | 5° C | 99% | 1018.5 hPa | 0 mm | - | 85 W/m² | - |
* Rain latest hour (hover to see other rain measurements)
** Current wind speed in m/s (hover to see current wind gust speed)